Time,TemperatureF,DewpointF,PressureIn,WindDirection,WindDirectionDegrees,WindSpeedMPH,WindSpeedGustMPH,Humidity,HourlyPrecipIn,Conditions,Clouds,dailyrainin,SolarRadiationWatts/m^2,SoftwareType,DateUTC
2015-05-03 00:04:00,75.8,36.4,29.67,NW,321,1.0,3.0,24,0.00,,,0.00,0,WeatherCatV2.02B30,2015-05-03 06:04:00,
2015-05-03 00:09:00,75.6,36.2,29.68,NW,316,1.0,3.0,24,0.00,,,0.00,0,WeatherCatV2.02B30,2015-05-03 06:09:00,
2015-05-03 00:14:00,75.4,36.1,29.68,NW,316,1.0,1.0,24,0.00,,,0.00,0,WeatherCatV2.02B30,2015-05-03 06:14:00,
2015-05-03 00:19:00,75.1,35.8,29.68,WNW,298,1.0,2.0,24,0.00,,,0.00,0,WeatherCatV2.02B30,2015-05-03 06:19:00,
2015-05-03 00:24:00,74.8,35.6,29.69,NW,313,2.0,3.0,24,0.00,,,0.00,0,WeatherCatV2.02B30,2015-05-03 06:24:00,
2015-05-03 00:29:00,74.7,36.5,29.69,WNW,301,0.0,1.0,25,0.00,,,0.00,0,WeatherCatV2.02B30,2015-05-03 06:29:00,
2015-05-03 00:34:00,74.5,36.4,29.70,NW,317,4.0,8.0,25,0.00,,,0.00,0,WeatherCatV2.02B30,2015-05-03 06:34:00,
2015-05-03 00:39:00,74.4,37.3,29.70,NW,310,6.0,15.0,26,0.00,,,0.00,0,WeatherCatV2.02B30,2015-05-03 06:39:00,
2015-05-03 00:44:00,74.2,37.1,29.70,NW,310,2.0,7.0,26,0.00,,,0.00,0,WeatherCatV2.02B30,2015-05-03 06:44:00,
2015-05-03 00:49:00,73.9,37.8,29.70,NNW,333,3.0,8.0,27,0.00,,,0.00,0,WeatherCatV2.02B30,2015-05-03 06:49:00,
2015-05-03 00:54:00,73.8,37.7,29.70,NW,310,5.0,11.0,27,0.00,,,0.00,0,WeatherCatV2.02B30,2015-05-03 06:54:00,
2015-05-03 00:59:00,73.8,37.7,29.70,NW,309,4.0,9.0,27,0.00,,,0.00,0,WeatherCatV2.02B30,2015-05-03 06:59:00,
2015-05-03 01:04:00,73.8,37.7,29.70,NW,306,2.0,11.0,27,0.00,,,0.00,0,WeatherCatV2.02B30,2015-05-03 07:04:00,
2015-05-03 01:09:00,73.6,37.5,29.70,NNW,336,3.0,6.0,27,0.00,,,0.00,0,WeatherCatV2.02B30,2015-05-03 07:09:00,
2015-05-03 01:14:00,73.5,37.5,29.70,NW,318,2.0,7.0,27,0.00,,,0.00,0,WeatherCatV2.02B30,2015-05-03 07:14:00,
2015-05-03 01:19:00,73.3,37.3,29.70,NW,312,1.0,3.0,27,0.00,,,0.00,0,WeatherCatV2.02B30,2015-05-03 07:19:00,
2015-05-03 01:24:00,73.2,38.1,29.70,NW,321,2.0,3.0,28,0.00,,,0.00,0,WeatherCatV2.02B30,2015-05-03 07:24:00,
2015-05-03 01:29:00,73.0,38.0,29.70,NW,315,1.0,2.0,28,0.00,,,0.00,0,WeatherCatV2.02B30,2015-05-03 07:29:00,
2015-05-03 01:34:00,73.1,37.1,29.70,NNW,329,8.0,14.0,27,0.00,,,0.00,0,WeatherCatV2.02B30,2015-05-03 07:34:00,
2015-05-03 01:39:00,73.4,37.4,29.70,NW,321,3.0,8.0,27,0.00,,,0.00,0,WeatherCatV2.02B30,2015-05-03 07:39:00,
2015-05-03 01:44:00,73.4,37.4,29.69,NNW,327,3.0,9.0,27,0.00,,,0.00,0,WeatherCatV2.02B30,2015-05-03 07:44:00,
2015-05-03 01:49:00,73.4,37.4,29.69,NNW,331,3.0,6.0,27,0.00,,,0.00,0,WeatherCatV2.02B30,2015-05-03 07:49:00,
2015-05-03 01:54:00,73.2,37.2,29.69,NW,317,3.0,7.0,27,0.00,,,0.00,0,WeatherCatV2.02B30,2015-05-03 07:54:00,
2015-05-03 01:59:00,73.0,37.0,29.69,North,11,4.0,8.0,27,0.00,,,0.00,0,WeatherCatV2.02B30,2015-05-03 07:59:00,
2015-05-03 02:04:00,72.9,37.0,29.69,NNW,341,1.0,5.0,27,0.00,,,0.00,0,WeatherCatV2.02B30,2015-05-03 08:04:00,
2015-05-03 02:09:00,73.0,37.0,29.69,NNW,334,4.0,5.0,27,0.00,,,0.00,0,WeatherCatV2.02B30,2015-05-03 08:09:00,
2015-05-03 02:14:00,73.1,37.1,29.69,NNW,344,8.0,8.0,27,0.00,,,0.00,0,WeatherCatV2.02B30,2015-05-03 08:14:00,
2015-05-03 02:19:00,73.1,37.1,29.69,NNW,329,3.0,5.0,27,0.00,,,0.00,0,WeatherCatV2.02B30,2015-05-03 08:19:00,
2015-05-03 02:24:00,72.9,37.0,29.68,NNW,334,2.0,6.0,27,0.00,,,0.00,0,WeatherCatV2.02B30,2015-05-03 08:24:00,
2015-05-03 02:29:00,72.8,37.8,29.68,North,5,0.0,2.0,28,0.00,,,0.00,0,WeatherCatV2.02B30,2015-05-03 08:29:00,
2015-05-03 02:34:00,72.5,37.5,29.68,NNW,342,2.0,7.0,28,0.00,,,0.00,0,WeatherCatV2.02B30,2015-05-03 08:34:00,
2015-05-03 02:39:00,72.5,37.5,29.68,North,5,5.0,9.0,28,0.00,,,0.00,0,WeatherCatV2.02B30,2015-05-03 08:39:00,
2015-05-03 02:44:00,72.3,38.2,29.68,NNW,347,0.0,5.0,29,0.00,,,0.00,0,WeatherCatV2.02B30,2015-05-03 08:44:00,
2015-05-03 02:49:00,72.1,38.1,29.68,North,355,0.0,3.0,29,0.00,,,0.00,0,WeatherCatV2.02B30,2015-05-03 08:49:00,
2015-05-03 02:54:00,71.9,38.8,29.67,NNE,30,1.0,3.0,30,0.00,,,0.00,0,WeatherCatV2.02B30,2015-05-03 08:54:00,
2015-05-03 02:59:00,71.6,38.5,29.67,ENE,60,4.0,4.0,30,0.00,,,0.00,0,WeatherCatV2.02B30,2015-05-03 08:59:00,
2015-05-03 03:04:00,71.5,38.4,29.66,ENE,71,4.0,6.0,30,0.00,,,0.00,0,WeatherCatV2.02B30,2015-05-03 09:04:00,
2015-05-03 03:09:00,71.4,38.3,29.66,NE,51,8.0,14.0,30,0.00,,,0.00,0,WeatherCatV2.02B30,2015-05-03 09:09:00,
2015-05-03 03:14:00,71.3,38.2,29.65,East,80,8.0,15.0,30,0.00,,,0.00,0,WeatherCatV2.02B30,2015-05-03 09:14:00,
2015-05-03 03:19:00,71.2,38.2,29.65,NE,52,6.0,11.0,30,0.00,,,0.00,0,WeatherCatV2.02B30,2015-05-03 09:19:00,
2015-05-03 03:24:00,71.0,38.0,29.65,NE,50,7.0,10.0,30,0.00,,,0.00,0,WeatherCatV2.02B30,2015-05-03 09:24:00,
2015-05-03 03:29:00,71.0,38.0,29.64,ENE,77,5.0,11.0,30,0.00,,,0.00,0,WeatherCatV2.02B30,2015-05-03 09:29:00,
2015-05-03 03:34:00,71.0,38.0,29.64,East,84,4.0,6.0,30,0.00,,,0.00,0,WeatherCatV2.02B30,2015-05-03 09:34:00,
2015-05-03 03:39:00,70.8,37.8,29.64,East,80,4.0,5.0,30,0.00,,,0.00,0,WeatherCatV2.02B30,2015-05-03 09:39:00,
2015-05-03 03:44:00,70.7,37.7,29.64,ENE,72,1.0,7.0,30,0.00,,,0.00,0,WeatherCatV2.02B30,2015-05-03 09:44:00,
2015-05-03 03:49:00,70.6,37.7,29.65,ENE,76,1.0,4.0,30,0.00,,,0.00,0,WeatherCatV2.02B30,2015-05-03 09:49:00,
2015-05-03 03:54:00,70.5,37.6,29.65,East,82,2.0,3.0,30,0.00,,,0.00,0,WeatherCatV2.02B30,2015-05-03 09:54:00,
2015-05-03 03:59:00,70.3,37.4,29.65,ENE,59,4.0,10.0,30,0.00,,,0.00,0,WeatherCatV2.02B30,2015-05-03 09:59:00,
2015-05-03 04:04:00,70.4,37.5,29.64,ENE,71,5.0,7.0,30,0.00,,,0.00,0,WeatherCatV2.02B30,2015-05-03 10:04:00,
2015-05-03 04:09:00,70.4,37.5,29.64,ENE,60,5.0,11.0,30,0.00,,,0.00,0,WeatherCatV2.02B30,2015-05-03 10:09:00,
2015-05-03 04:14:00,70.4,37.5,29.64,ENE,63,4.0,6.0,30,0.00,,,0.00,0,WeatherCatV2.02B30,2015-05-03 10:14:00,
2015-05-03 04:19:00,70.2,37.3,29.64,ENE,62,1.0,2.0,30,0.00,,,0.00,0,WeatherCatV2.02B30,2015-05-03 10:19:00,
2015-05-03 04:24:00,69.8,37.8,29.63,ENE,65,1.0,2.0,31,0.00,,,0.00,0,WeatherCatV2.02B30,2015-05-03 10:24:00,
2015-05-03 04:29:00,69.5,37.5,29.63,NE,47,0.0,1.0,31,0.00,,,0.00,0,WeatherCatV2.02B30,2015-05-03 10:29:00,
2015-05-03 04:34:00,68.8,37.7,29.64,NNW,333,3.0,4.0,32,0.00,,,0.00,0,WeatherCatV2.02B30,2015-05-03 10:34:00,
2015-05-03 04:39:00,67.9,37.7,29.64,North,350,1.0,4.0,33,0.00,,,0.00,0,WeatherCatV2.02B30,2015-05-03 10:39:00,
2015-05-03 04:44:00,67.2,37.9,29.64,NNW,347,1.0,3.0,34,0.00,,,0.00,0,WeatherCatV2.02B30,2015-05-03 10:44:00,
2015-05-03 04:49:00,66.7,38.2,29.64,NNW,348,0.0,2.0,35,0.00,,,0.00,0,WeatherCatV2.02B30,2015-05-03 10:49:00,
2015-05-03 04:54:00,66.2,37.7,29.64,NNW,348,0.0,1.0,35,0.00,,,0.00,0,WeatherCatV2.02B30,2015-05-03 10:54:00,
2015-05-03 04:59:00,65.9,38.2,29.63,North,355,1.0,1.0,36,0.00,,,0.00,0,WeatherCatV2.02B30,2015-05-03 10:59:00,
2015-05-03 05:04:00,65.7,37.3,29.63,ENE,69,3.0,4.0,35,0.00,,,0.00,0,WeatherCatV2.02B30,2015-05-03 11:04:00,
2015-05-03 05:09:00,65.6,37.2,29.64,ENE,66,0.0,4.0,35,0.00,,,0.00,0,WeatherCatV2.02B30,2015-05-03 11:09:00,
2015-05-03 05:14:00,65.4,37.0,29.63,ENE,63,0.0,4.0,35,0.00,,,0.00,0,WeatherCatV2.02B30,2015-05-03 11:14:00,
2015-05-03 05:19:00,65.1,37.5,29.64,ENE,63,2.0,4.0,36,0.00,,,0.00,0,WeatherCatV2.02B30,2015-05-03 11:19:00,
2015-05-03 05:24:00,64.9,37.3,29.63,ENE,61,1.0,4.0,36,0.00,,,0.00,0,WeatherCatV2.02B30,2015-05-03 11:24:00,
2015-05-03 05:29:00,65.1,36.8,29.63,ENE,61,3.0,10.0,35,0.00,,,0.00,0,WeatherCatV2.02B30,2015-05-03 11:29:00,
2015-05-03 05:34:00,65.5,37.1,29.63,ENE,63,1.0,6.0,35,0.00,,,0.00,0,WeatherCatV2.02B30,2015-05-03 11:34:00,
2015-05-03 05:39:00,65.5,37.1,29.63,NE,46,0.0,2.0,35,0.00,,,0.00,0,WeatherCatV2.02B30,2015-05-03 11:39:00,
2015-05-03 05:44:00,65.5,37.1,29.63,ENE,59,0.0,2.0,35,0.00,,,0.00,0,WeatherCatV2.02B30,2015-05-03 11:44:00,
2015-05-03 05:49:00,65.2,37.6,29.64,ENE,57,0.0,1.0,36,0.00,,,0.00,0,WeatherCatV2.02B30,2015-05-03 11:49:00,
2015-05-03 05:54:00,64.7,37.8,29.64,NE,54,0.0,1.0,37,0.00,,,0.00,0,WeatherCatV2.02B30,2015-05-03 11:54:00,
2015-05-03 05:59:00,63.9,37.1,29.64,NNE,23,1.0,1.0,37,0.00,,,0.00,0,WeatherCatV2.02B30,2015-05-03 11:59:00,
2015-05-03 06:04:00,63.3,37.3,29.64,NNE,23,0.0,0.0,38,0.00,,,0.00,0,WeatherCatV2.02B30,2015-05-03 12:04:00,
2015-05-03 06:09:00,62.7,37.4,29.64,NE,44,0.0,1.0,39,0.00,,,0.00,0,WeatherCatV2.02B30,2015-05-03 12:09:00,
2015-05-03 06:14:00,62.1,37.5,29.64,NE,44,0.0,1.0,40,0.00,,,0.00,0,WeatherCatV2.02B30,2015-05-03 12:14:00,
2015-05-03 06:19:00,61.8,37.2,29.64,NE,44,0.0,0.0,40,0.00,,,0.00,0,WeatherCatV2.02B30,2015-05-03 12:19:00,
2015-05-03 06:24:00,61.4,37.5,29.64,NE,44,0.0,0.0,41,0.00,,,0.00,5,WeatherCatV2.02B30,2015-05-03 12:24:00,
2015-05-03 06:29:00,60.9,37.0,29.64,NE,44,0.0,0.0,41,0.00,,,0.00,7,WeatherCatV2.02B30,2015-05-03 12:29:00,
2015-05-03 06:34:00,60.5,36.7,29.64,SSE,160,0.0,0.0,41,0.00,,,0.00,11,WeatherCatV2.02B30,2015-05-03 12:34:00,
2015-05-03 06:39:00,60.1,37.5,29.65,SSE,160,0.0,0.0,43,0.00,,,0.00,12,WeatherCatV2.02B30,2015-05-03 12:39:00,
2015-05-03 06:44:00,59.7,37.2,29.65,SSE,160,0.0,0.0,43,0.00,,,0.00,16,WeatherCatV2.02B30,2015-05-03 12:44:00,
2015-05-03 06:49:00,59.2,37.9,29.65,SSE,160,0.0,0.0,45,0.00,,,0.00,18,WeatherCatV2.02B30,2015-05-03 12:49:00,
2015-05-03 06:59:00,59.5,38.1,29.66,SW,236,1.0,2.0,45,0.00,,,0.00,53,WeatherCatV2.02B30,2015-05-03 12:59:00,
2015-05-03 07:04:00,60.4,39.0,29.66,SW,236,0.0,1.0,45,0.00,,,0.00,69,WeatherCatV2.02B30,2015-05-03 13:04:00,
2015-05-03 07:09:00,61.3,38.6,29.66,WSW,239,0.0,2.0,43,0.00,,,0.00,84,WeatherCatV2.02B30,2015-05-03 13:09:00,
2015-05-03 07:14:00,62.1,38.7,29.66,WSW,242,0.0,1.0,42,0.00,,,0.00,100,WeatherCatV2.02B30,2015-05-03 13:14:00,
2015-05-03 07:19:00,62.9,39.5,29.66,WSW,243,0.0,1.0,42,0.00,,,0.00,120,WeatherCatV2.02B30,2015-05-03 13:19:00,
2015-05-03 07:24:00,63.5,39.4,29.66,West,276,1.0,1.0,41,0.00,,,0.00,141,WeatherCatV2.02B30,2015-05-03 13:24:00,
2015-05-03 07:29:00,64.2,40.0,29.66,West,279,0.0,1.0,41,0.00,,,0.00,160,WeatherCatV2.02B30,2015-05-03 13:29:00,
2015-05-03 07:34:00,64.8,39.9,29.66,West,281,0.0,1.0,40,0.00,,,0.00,179,WeatherCatV2.02B30,2015-05-03 13:34:00,
2015-05-03 07:39:00,65.4,39.8,29.66,WNW,282,0.0,2.0,39,0.00,,,0.00,197,WeatherCatV2.02B30,2015-05-03 13:39:00,
2015-05-03 07:44:00,66.0,39.7,29.66,WNW,282,0.0,0.0,38,0.00,,,0.00,214,WeatherCatV2.02B30,2015-05-03 13:44:00,
2015-05-03 07:49:00,66.9,39.1,29.67,WSW,247,0.0,2.0,36,0.00,,,0.00,230,WeatherCatV2.02B30,2015-05-03 13:49:00,
2015-05-03 07:54:00,67.8,39.9,29.67,WSW,239,0.0,2.0,36,0.00,,,0.00,246,WeatherCatV2.02B30,2015-05-03 13:54:00,
2015-05-03 07:59:00,68.6,39.8,29.67,WSW,239,1.0,2.0,35,0.00,,,0.00,265,WeatherCatV2.02B30,2015-05-03 13:59:00,
2015-05-03 08:04:00,69.2,40.4,29.67,WSW,240,0.0,2.0,35,0.00,,,0.00,281,WeatherCatV2.02B30,2015-05-03 14:04:00,
2015-05-03 08:14:00,69.9,40.2,29.67,WNW,288,1.0,3.0,34,0.00,,,0.00,318,WeatherCatV2.02B30,2015-05-03 14:14:00,
2015-05-03 08:20:00,70.3,40.6,29.67,WNW,301,2.0,3.0,34,0.00,,,0.00,336,WeatherCatV2.02B30,2015-05-03 14:20:00,
2015-05-03 08:25:00,70.7,40.2,29.67,NW,306,2.0,2.0,33,0.00,,,0.00,350,WeatherCatV2.02B30,2015-05-03 14:25:00,
2015-05-03 08:30:00,71.2,40.6,29.67,NNW,331,1.0,3.0,33,0.00,,,0.00,369,WeatherCatV2.02B30,2015-05-03 14:30:00,
2015-05-03 08:35:00,71.7,40.2,29.67,NW,325,0.0,4.0,32,0.00,,,0.00,385,WeatherCatV2.02B30,2015-05-03 14:35:00,
2015-05-03 08:40:00,72.2,40.7,29.67,NNW,327,0.0,4.0,32,0.00,,,0.00,403,WeatherCatV2.02B30,2015-05-03 14:40:00,
2015-05-03 08:45:00,72.5,40.1,29.67,NNW,337,2.0,4.0,31,0.00,,,0.00,420,WeatherCatV2.02B30,2015-05-03 14:45:00,
2015-05-03 08:50:00,72.8,40.4,29.68,NNW,339,0.0,3.0,31,0.00,,,0.00,438,WeatherCatV2.02B30,2015-05-03 14:50:00,
2015-05-03 08:55:00,73.1,40.7,29.68,NNW,338,1.0,3.0,31,0.00,,,0.00,455,WeatherCatV2.02B30,2015-05-03 14:55:00,
2015-05-03 09:00:00,73.4,40.9,29.68,NNW,338,1.0,3.0,31,0.00,,,0.00,468,WeatherCatV2.02B30,2015-05-03 15:00:00,
2015-05-03 09:05:00,74.1,40.7,29.68,NNW,338,3.0,4.0,30,0.00,,,0.00,483,WeatherCatV2.02B30,2015-05-03 15:05:00,
2015-05-03 09:10:00,74.5,41.0,29.68,NNW,338,0.0,4.0,30,0.00,,,0.00,503,WeatherCatV2.02B30,2015-05-03 15:10:00,
2015-05-03 09:15:00,74.9,41.4,29.68,East,98,2.0,2.0,30,0.00,,,0.00,519,WeatherCatV2.02B30,2015-05-03 15:15:00,
2015-05-03 09:20:00,75.3,40.8,29.68,WNW,295,1.0,2.0,29,0.00,,,0.00,536,WeatherCatV2.02B30,2015-05-03 15:20:00,
2015-05-03 09:25:00,75.9,41.3,29.68,WNW,295,2.0,3.0,29,0.00,,,0.00,550,WeatherCatV2.02B30,2015-05-03 15:25:00,
2015-05-03 09:30:00,76.4,40.9,29.68,WNW,296,0.0,2.0,28,0.00,,,0.00,566,WeatherCatV2.02B30,2015-05-03 15:30:00,
2015-05-03 09:35:00,76.6,41.0,29.68,WNW,301,1.0,3.0,28,0.00,,,0.00,580,WeatherCatV2.02B30,2015-05-03 15:35:00,
2015-05-03 09:40:00,76.6,40.1,29.68,WNW,295,2.0,4.0,27,0.00,,,0.00,596,WeatherCatV2.02B30,2015-05-03 15:40:00,
2015-05-03 09:45:00,76.8,40.3,29.68,WNW,294,1.0,3.0,27,0.00,,,0.00,610,WeatherCatV2.02B30,2015-05-03 15:45:00,
2015-05-03 09:50:00,77.0,40.4,29.68,NW,312,3.0,3.0,27,0.00,,,0.00,628,WeatherCatV2.02B30,2015-05-03 15:50:00,
2015-05-03 09:55:00,77.3,39.7,29.68,NW,318,1.0,4.0,26,0.00,,,0.00,642,WeatherCatV2.02B30,2015-05-03 15:55:00,
2015-05-03 10:00:00,77.6,40.0,29.68,NW,318,1.0,4.0,26,0.00,,,0.00,656,WeatherCatV2.02B30,2015-05-03 16:00:00,
2015-05-03 10:05:00,78.0,39.3,29.67,NW,317,0.0,3.0,25,0.00,,,0.00,670,WeatherCatV2.02B30,2015-05-03 16:05:00,
2015-05-03 10:10:00,78.1,39.4,29.67,NNW,336,3.0,5.0,25,0.00,,,0.00,680,WeatherCatV2.02B30,2015-05-03 16:10:00,
2015-05-03 10:15:00,78.6,39.8,29.67,NNW,340,0.0,1.0,25,0.00,,,0.00,698,WeatherCatV2.02B30,2015-05-03 16:15:00,
2015-05-03 10:20:00,79.0,40.2,29.67,NNW,340,2.0,4.0,25,0.00,,,0.00,710,WeatherCatV2.02B30,2015-05-03 16:20:00,
2015-05-03 10:25:00,79.2,39.3,29.67,NNW,335,4.0,5.0,24,0.00,,,0.00,724,WeatherCatV2.02B30,2015-05-03 16:25:00,
2015-05-03 10:30:00,79.1,39.2,29.67,WNW,288,1.0,3.0,24,0.00,,,0.00,737,WeatherCatV2.02B30,2015-05-03 16:30:00,
2015-05-03 10:35:00,79.2,39.3,29.67,WNW,300,0.0,5.0,24,0.00,,,0.00,751,WeatherCatV2.02B30,2015-05-03 16:35:00,
2015-05-03 10:40:00,79.6,39.6,29.67,NW,309,2.0,3.0,24,0.00,,,0.00,761,WeatherCatV2.02B30,2015-05-03 16:40:00,
2015-05-03 10:45:00,79.6,38.5,29.67,NW,306,2.0,2.0,23,0.00,,,0.00,770,WeatherCatV2.02B30,2015-05-03 16:45:00,
2015-05-03 10:50:00,80.0,38.8,29.67,NW,311,1.0,3.0,23,0.00,,,0.00,784,WeatherCatV2.02B30,2015-05-03 16:50:00,
2015-05-03 10:55:00,80.3,38.0,29.67,NW,304,0.0,3.0,22,0.00,,,0.00,795,WeatherCatV2.02B30,2015-05-03 16:55:00,
2015-05-03 11:00:00,80.5,38.1,29.67,North,5,3.0,7.0,22,0.00,,,0.00,807,WeatherCatV2.02B30,2015-05-03 17:00:00,
2015-05-03 11:05:00,80.8,38.4,29.66,NNW,337,1.0,7.0,22,0.00,,,0.00,817,WeatherCatV2.02B30,2015-05-03 17:05:00,
2015-05-03 11:10:00,81.7,39.1,29.66,NNW,328,1.0,5.0,22,0.00,,,0.00,828,WeatherCatV2.02B30,2015-05-03 17:10:00,
2015-05-03 11:15:00,81.5,37.8,29.66,NNW,327,0.0,2.0,21,0.00,,,0.00,837,WeatherCatV2.02B30,2015-05-03 17:15:00,
2015-05-03 11:20:00,81.6,37.9,29.67,NNW,327,4.0,4.0,21,0.00,,,0.00,842,WeatherCatV2.02B30,2015-05-03 17:20:00,
2015-05-03 11:25:00,82.3,37.2,29.66,West,278,2.0,5.0,20,0.00,,,0.00,854,WeatherCatV2.02B30,2015-05-03 17:25:00,
2015-05-03 11:30:00,82.5,38.6,29.66,NNW,344,2.0,5.0,21,0.00,,,0.00,863,WeatherCatV2.02B30,2015-05-03 17:30:00,
2015-05-03 11:35:00,83.0,37.8,29.66,NNW,337,2.0,4.0,20,0.00,,,0.00,870,WeatherCatV2.02B30,2015-05-03 17:35:00,
2015-05-03 11:40:00,83.4,38.1,29.66,NW,313,0.0,1.0,20,0.00,,,0.00,881,WeatherCatV2.02B30,2015-05-03 17:40:00,
2015-05-03 11:45:00,83.5,36.9,29.66,NW,319,0.0,4.0,19,0.00,,,0.00,886,WeatherCatV2.02B30,2015-05-03 17:45:00,
2015-05-03 11:50:00,83.0,37.8,29.66,West,267,5.0,5.0,20,0.00,,,0.00,893,WeatherCatV2.02B30,2015-05-03 17:50:00,
2015-05-03 11:55:00,83.4,38.1,29.65,NNW,344,3.0,7.0,20,0.00,,,0.00,898,WeatherCatV2.02B30,2015-05-03 17:55:00,
2015-05-03 12:00:00,83.5,36.9,29.65,NNW,338,0.0,2.0,19,0.00,,,0.00,905,WeatherCatV2.02B30,2015-05-03 18:00:00,
2015-05-03 12:05:00,84.4,37.6,29.64,West,260,3.0,6.0,19,0.00,,,0.00,912,WeatherCatV2.02B30,2015-05-03 18:05:00,